sensor_id;sensor_type;location;lat;lon;timestamp;temperature;humidity
16827;DHT22;8530;49.540;8.576;2023-10-19T00:02:06;13.20;96.90
16827;DHT22;8530;49.540;8.576;2023-10-19T00:04:33;13.20;97.00
16827;DHT22;8530;49.540;8.576;2023-10-19T00:07:01;13.20;97.10
16827;DHT22;8530;49.540;8.576;2023-10-19T00:09:30;13.20;97.20
16827;DHT22;8530;49.540;8.576;2023-10-19T00:12:03;13.20;97.30
16827;DHT22;8530;49.540;8.576;2023-10-19T00:14:31;13.20;97.40
16827;DHT22;8530;49.540;8.576;2023-10-19T00:16:58;13.20;97.40
16827;DHT22;8530;49.540;8.576;2023-10-19T00:19:32;13.20;97.50
16827;DHT22;8530;49.540;8.576;2023-10-19T00:22:04;13.20;97.60
16827;DHT22;8530;49.540;8.576;2023-10-19T00:24:36;13.20;97.70
16827;DHT22;8530;49.540;8.576;2023-10-19T00:27:02;13.20;97.80
16827;DHT22;8530;49.540;8.576;2023-10-19T00:29:40;13.20;97.90
16827;DHT22;8530;49.540;8.576;2023-10-19T00:32:06;13.20;97.90
16827;DHT22;8530;49.540;8.576;2023-10-19T00:34:40;13.30;98.10
16827;DHT22;8530;49.540;8.576;2023-10-19T00:37:07;13.30;98.20
16827;DHT22;8530;49.540;8.576;2023-10-19T00:39:36;13.30;98.30
16827;DHT22;8530;49.540;8.576;2023-10-19T00:42:09;13.30;98.30
16827;DHT22;8530;49.540;8.576;2023-10-19T00:44:36;13.30;98.40
16827;DHT22;8530;49.540;8.576;2023-10-19T00:47:08;13.30;98.40
16827;DHT22;8530;49.540;8.576;2023-10-19T00:49:40;13.30;98.50
16827;DHT22;8530;49.540;8.576;2023-10-19T00:52:10;13.30;98.60
16827;DHT22;8530;49.540;8.576;2023-10-19T00:54:45;13.30;98.60
16827;DHT22;8530;49.540;8.576;2023-10-19T00:57:17;13.30;98.70
16827;DHT22;8530;49.540;8.576;2023-10-19T00:59:46;13.30;98.80
16827;DHT22;8530;49.540;8.576;2023-10-19T01:02:18;13.30;98.80
16827;DHT22;8530;49.540;8.576;2023-10-19T01:04:49;13.30;98.90
16827;DHT22;8530;49.540;8.576;2023-10-19T01:07:21;13.40;99.00
16827;DHT22;8530;49.540;8.576;2023-10-19T01:09:53;13.40;99.00
16827;DHT22;8530;49.540;8.576;2023-10-19T01:12:22;13.40;99.10
16827;DHT22;8530;49.540;8.576;2023-10-19T01:15:06;13.40;99.20
16827;DHT22;8530;49.540;8.576;2023-10-19T01:17:36;13.40;99.20
16827;DHT22;8530;49.540;8.576;2023-10-19T01:20:09;13.40;99.20
16827;DHT22;8530;49.540;8.576;2023-10-19T01:22:48;13.40;99.30
16827;DHT22;8530;49.540;8.576;2023-10-19T01:25:18;13.40;99.40
16827;DHT22;8530;49.540;8.576;2023-10-19T01:27:50;13.40;99.40
16827;DHT22;8530;49.540;8.576;2023-10-19T01:30:22;13.50;99.50
16827;DHT22;8530;49.540;8.576;2023-10-19T01:32:49;13.50;99.50
16827;DHT22;8530;49.540;8.576;2023-10-19T01:35:17;13.50;99.60
16827;DHT22;8530;49.540;8.576;2023-10-19T01:37:44;13.50;99.60
16827;DHT22;8530;49.540;8.576;2023-10-19T01:40:11;13.50;99.60
16827;DHT22;8530;49.540;8.576;2023-10-19T01:42:41;13.50;99.70
16827;DHT22;8530;49.540;8.576;2023-10-19T01:45:08;13.50;99.70
16827;DHT22;8530;49.540;8.576;2023-10-19T01:47:37;13.40;99.70
16827;DHT22;8530;49.540;8.576;2023-10-19T01:50:07;13.40;99.70
16827;DHT22;8530;49.540;8.576;2023-10-19T01:52:45;13.40;99.70
16827;DHT22;8530;49.540;8.576;2023-10-19T01:55:14;13.40;99.70
16827;DHT22;8530;49.540;8.576;2023-10-19T01:57:46;13.30;99.70
16827;DHT22;8530;49.540;8.576;2023-10-19T02:00:13;13.30;99.80
16827;DHT22;8530;49.540;8.576;2023-10-19T02:02:48;13.30;99.80
16827;DHT22;8530;49.540;8.576;2023-10-19T02:05:15;13.30;99.80
16827;DHT22;8530;49.540;8.576;2023-10-19T02:07:41;13.30;99.80
16827;DHT22;8530;49.540;8.576;2023-10-19T02:10:09;13.30;99.90
16827;DHT22;8530;49.540;8.576;2023-10-19T02:12:37;13.30;99.90
16827;DHT22;8530;49.540;8.576;2023-10-19T02:15:07;13.30;99.90
16827;DHT22;8530;49.540;8.576;2023-10-19T02:17:33;13.20;99.90
16827;DHT22;8530;49.540;8.576;2023-10-19T02:20:00;13.20;99.90
16827;DHT22;8530;49.540;8.576;2023-10-19T02:22:26;13.20;99.90
16827;DHT22;8530;49.540;8.576;2023-10-19T02:24:53;13.20;99.90
16827;DHT22;8530;49.540;8.576;2023-10-19T02:27:19;13.20;99.90
16827;DHT22;8530;49.540;8.576;2023-10-19T02:29:49;13.20;99.90
16827;DHT22;8530;49.540;8.576;2023-10-19T02:32:15;13.20;99.90
16827;DHT22;8530;49.540;8.576;2023-10-19T02:34:44;13.20;99.90
16827;DHT22;8530;49.540;8.576;2023-10-19T02:37:11;13.10;99.90
16827;DHT22;8530;49.540;8.576;2023-10-19T02:39:37;13.10;99.90
16827;DHT22;8530;49.540;8.576;2023-10-19T02:42:03;13.10;99.90
16827;DHT22;8530;49.540;8.576;2023-10-19T02:44:30;13.10;99.90
16827;DHT22;8530;49.540;8.576;2023-10-19T02:46:57;13.10;99.90
16827;DHT22;8530;49.540;8.576;2023-10-19T02:49:28;13.10;99.90
16827;DHT22;8530;49.540;8.576;2023-10-19T02:51:55;13.10;99.90
16827;DHT22;8530;49.540;8.576;2023-10-19T02:54:28;13.10;99.90
16827;DHT22;8530;49.540;8.576;2023-10-19T02:56:58;13.20;99.90
16827;DHT22;8530;49.540;8.576;2023-10-19T02:59:26;13.20;99.90
16827;DHT22;8530;49.540;8.576;2023-10-19T03:01:56;13.20;99.90
16827;DHT22;8530;49.540;8.576;2023-10-19T03:04:26;13.20;99.90
16827;DHT22;8530;49.540;8.576;2023-10-19T03:06:54;13.20;99.90
16827;DHT22;8530;49.540;8.576;2023-10-19T03:09:21;13.20;99.90
16827;DHT22;8530;49.540;8.576;2023-10-19T03:11:50;13.20;99.90
16827;DHT22;8530;49.540;8.576;2023-10-19T03:14:20;13.30;99.90
16827;DHT22;8530;49.540;8.576;2023-10-19T03:16:46;13.30;99.90
16827;DHT22;8530;49.540;8.576;2023-10-19T03:19:14;13.30;99.90
16827;DHT22;8530;49.540;8.576;2023-10-19T03:21:40;13.40;99.90
16827;DHT22;8530;49.540;8.576;2023-10-19T03:24:08;13.40;99.90
16827;DHT22;8530;49.540;8.576;2023-10-19T03:26:37;13.40;99.90
16827;DHT22;8530;49.540;8.576;2023-10-19T03:29:08;13.40;99.90
16827;DHT22;8530;49.540;8.576;2023-10-19T03:31:38;13.40;99.90
16827;DHT22;8530;49.540;8.576;2023-10-19T03:34:08;13.40;99.90
16827;DHT22;8530;49.540;8.576;2023-10-19T03:36:37;13.40;99.90
16827;DHT22;8530;49.540;8.576;2023-10-19T03:39:03;13.40;99.90
16827;DHT22;8530;49.540;8.576;2023-10-19T03:41:37;13.40;99.90
16827;DHT22;8530;49.540;8.576;2023-10-19T03:44:07;13.50;99.90
16827;DHT22;8530;49.540;8.576;2023-10-19T03:46:38;13.50;99.90
16827;DHT22;8530;49.540;8.576;2023-10-19T03:49:18;13.50;99.90
16827;DHT22;8530;49.540;8.576;2023-10-19T03:51:46;13.50;99.90
16827;DHT22;8530;49.540;8.576;2023-10-19T03:54:25;13.50;99.90
16827;DHT22;8530;49.540;8.576;2023-10-19T03:56:53;13.50;99.90
16827;DHT22;8530;49.540;8.576;2023-10-19T03:59:21;13.50;99.90
16827;DHT22;8530;49.540;8.576;2023-10-19T04:01:48;13.60;99.90
16827;DHT22;8530;49.540;8.576;2023-10-19T04:04:15;13.60;99.90
16827;DHT22;8530;49.540;8.576;2023-10-19T04:06:42;13.60;99.90
16827;DHT22;8530;49.540;8.576;2023-10-19T04:09:14;13.60;99.90
16827;DHT22;8530;49.540;8.576;2023-10-19T04:11:43;13.60;99.90
16827;DHT22;8530;49.540;8.576;2023-10-19T04:14:15;13.60;99.90
16827;DHT22;8530;49.540;8.576;2023-10-19T04:16:42;13.60;99.90
16827;DHT22;8530;49.540;8.576;2023-10-19T04:19:09;13.60;99.90
16827;DHT22;8530;49.540;8.576;2023-10-19T04:21:36;13.60;99.90
16827;DHT22;8530;49.540;8.576;2023-10-19T04:24:05;13.60;99.90
16827;DHT22;8530;49.540;8.576;2023-10-19T04:26:34;13.60;99.90
16827;DHT22;8530;49.540;8.576;2023-10-19T04:29:03;13.60;99.90
16827;DHT22;8530;49.540;8.576;2023-10-19T04:31:36;13.60;99.90
16827;DHT22;8530;49.540;8.576;2023-10-19T04:34:06;13.70;99.90
16827;DHT22;8530;49.540;8.576;2023-10-19T04:36:34;13.60;99.90
16827;DHT22;8530;49.540;8.576;2023-10-19T04:39:01;13.70;99.90
16827;DHT22;8530;49.540;8.576;2023-10-19T04:41:28;13.60;99.90
16827;DHT22;8530;49.540;8.576;2023-10-19T04:43:56;13.60;99.90
16827;DHT22;8530;49.540;8.576;2023-10-19T04:46:24;13.50;99.90
16827;DHT22;8530;49.540;8.576;2023-10-19T04:48:50;13.50;99.90
16827;DHT22;8530;49.540;8.576;2023-10-19T04:51:17;13.40;99.90
16827;DHT22;8530;49.540;8.576;2023-10-19T04:53:44;13.30;99.90
16827;DHT22;8530;49.540;8.576;2023-10-19T04:56:10;13.30;99.90
16827;DHT22;8530;49.540;8.576;2023-10-19T04:58:38;13.30;99.90
16827;DHT22;8530;49.540;8.576;2023-10-19T05:01:06;13.30;99.90
16827;DHT22;8530;49.540;8.576;2023-10-19T05:03:32;13.40;99.90
16827;DHT22;8530;49.540;8.576;2023-10-19T05:05:59;13.40;99.90
16827;DHT22;8530;49.540;8.576;2023-10-19T05:08:27;13.40;99.90
16827;DHT22;8530;49.540;8.576;2023-10-19T05:10:55;13.30;99.90
16827;DHT22;8530;49.540;8.576;2023-10-19T05:13:25;13.30;99.90
16827;DHT22;8530;49.540;8.576;2023-10-19T05:15:52;13.20;99.90
16827;DHT22;8530;49.540;8.576;2023-10-19T05:18:21;13.20;99.90
16827;DHT22;8530;49.540;8.576;2023-10-19T05:20:49;13.20;99.90
16827;DHT22;8530;49.540;8.576;2023-10-19T05:23:21;13.10;99.90
16827;DHT22;8530;49.540;8.576;2023-10-19T05:25:48;13.10;99.90
16827;DHT22;8530;49.540;8.576;2023-10-19T05:28:14;13.00;99.90
16827;DHT22;8530;49.540;8.576;2023-10-19T05:30:41;13.00;99.90
16827;DHT22;8530;49.540;8.576;2023-10-19T05:33:08;12.90;99.90
16827;DHT22;8530;49.540;8.576;2023-10-19T05:35:36;12.90;99.90
16827;DHT22;8530;49.540;8.576;2023-10-19T05:38:06;12.90;99.90
16827;DHT22;8530;49.540;8.576;2023-10-19T05:40:32;12.80;99.90
16827;DHT22;8530;49.540;8.576;2023-10-19T05:43:01;12.80;99.90
16827;DHT22;8530;49.540;8.576;2023-10-19T05:45:29;12.80;99.90
16827;DHT22;8530;49.540;8.576;2023-10-19T05:47:56;12.70;99.90
16827;DHT22;8530;49.540;8.576;2023-10-19T05:50:23;12.70;99.90
16827;DHT22;8530;49.540;8.576;2023-10-19T05:52:51;12.70;99.90
16827;DHT22;8530;49.540;8.576;2023-10-19T05:55:18;12.70;99.90
16827;DHT22;8530;49.540;8.576;2023-10-19T05:57:47;12.70;99.90
16827;DHT22;8530;49.540;8.576;2023-10-19T06:00:15;12.80;99.90
16827;DHT22;8530;49.540;8.576;2023-10-19T06:02:44;12.80;99.90
16827;DHT22;8530;49.540;8.576;2023-10-19T06:05:13;12.80;99.90
16827;DHT22;8530;49.540;8.576;2023-10-19T06:07:41;12.90;99.90
16827;DHT22;8530;49.540;8.576;2023-10-19T06:10:11;12.90;99.90
16827;DHT22;8530;49.540;8.576;2023-10-19T06:12:41;13.00;99.90
16827;DHT22;8530;49.540;8.576;2023-10-19T06:15:09;13.00;99.90
16827;DHT22;8530;49.540;8.576;2023-10-19T06:17:36;13.10;99.90
16827;DHT22;8530;49.540;8.576;2023-10-19T06:20:03;13.10;99.90
16827;DHT22;8530;49.540;8.576;2023-10-19T06:22:30;13.20;99.90
16827;DHT22;8530;49.540;8.576;2023-10-19T06:24:57;13.30;99.90
16827;DHT22;8530;49.540;8.576;2023-10-19T06:27:25;13.40;99.90
16827;DHT22;8530;49.540;8.576;2023-10-19T06:29:52;13.50;99.90
16827;DHT22;8530;49.540;8.576;2023-10-19T06:32:18;13.60;99.90
16827;DHT22;8530;49.540;8.576;2023-10-19T06:34:45;13.70;99.90
16827;DHT22;8530;49.540;8.576;2023-10-19T06:37:12;13.90;99.90
16827;DHT22;8530;49.540;8.576;2023-10-19T06:39:39;14.00;99.90
16827;DHT22;8530;49.540;8.576;2023-10-19T06:42:07;14.10;99.90
16827;DHT22;8530;49.540;8.576;2023-10-19T06:44:41;14.20;99.90
16827;DHT22;8530;49.540;8.576;2023-10-19T06:47:08;14.40;99.90
16827;DHT22;8530;49.540;8.576;2023-10-19T06:49:35;14.60;99.90
16827;DHT22;8530;49.540;8.576;2023-10-19T06:52:03;14.70;99.90
16827;DHT22;8530;49.540;8.576;2023-10-19T06:54:31;14.90;99.90
16827;DHT22;8530;49.540;8.576;2023-10-19T06:56:57;15.10;99.90
16827;DHT22;8530;49.540;8.576;2023-10-19T06:59:24;15.30;99.90
16827;DHT22;8530;49.540;8.576;2023-10-19T07:01:52;15.50;99.90
16827;DHT22;8530;49.540;8.576;2023-10-19T07:04:19;15.70;99.90
16827;DHT22;8530;49.540;8.576;2023-10-19T07:06:46;15.90;99.90
16827;DHT22;8530;49.540;8.576;2023-10-19T07:09:13;16.00;99.90
16827;DHT22;8530;49.540;8.576;2023-10-19T07:11:40;16.00;99.90
16827;DHT22;8530;49.540;8.576;2023-10-19T07:14:10;16.10;99.90
16827;DHT22;8530;49.540;8.576;2023-10-19T07:16:39;16.20;99.90
16827;DHT22;8530;49.540;8.576;2023-10-19T07:19:07;16.30;99.90
16827;DHT22;8530;49.540;8.576;2023-10-19T07:21:35;16.50;99.90
16827;DHT22;8530;49.540;8.576;2023-10-19T07:24:03;16.60;99.90
16827;DHT22;8530;49.540;8.576;2023-10-19T07:26:34;16.70;99.90
16827;DHT22;8530;49.540;8.576;2023-10-19T07:29:08;16.90;99.90
16827;DHT22;8530;49.540;8.576;2023-10-19T07:31:35;17.00;99.90
16827;DHT22;8530;49.540;8.576;2023-10-19T07:34:02;17.00;99.90
16827;DHT22;8530;49.540;8.576;2023-10-19T07:36:30;17.00;99.90
16827;DHT22;8530;49.540;8.576;2023-10-19T07:38:57;17.00;99.90
16827;DHT22;8530;49.540;8.576;2023-10-19T07:41:24;17.00;99.90
16827;DHT22;8530;49.540;8.576;2023-10-19T07:43:51;16.90;99.90
16827;DHT22;8530;49.540;8.576;2023-10-19T07:46:18;16.90;99.90
16827;DHT22;8530;49.540;8.576;2023-10-19T07:48:45;16.90;99.90
16827;DHT22;8530;49.540;8.576;2023-10-19T07:51:11;16.80;99.90
16827;DHT22;8530;49.540;8.576;2023-10-19T07:53:40;16.80;99.90
16827;DHT22;8530;49.540;8.576;2023-10-19T07:56:07;16.80;99.90
16827;DHT22;8530;49.540;8.576;2023-10-19T07:58:34;16.80;99.90
16827;DHT22;8530;49.540;8.576;2023-10-19T08:01:01;16.80;99.90
16827;DHT22;8530;49.540;8.576;2023-10-19T08:03:27;16.80;99.90
16827;DHT22;8530;49.540;8.576;2023-10-19T08:05:54;16.90;99.90
16827;DHT22;8530;49.540;8.576;2023-10-19T08:08:21;16.90;99.90
16827;DHT22;8530;49.540;8.576;2023-10-19T08:10:51;17.00;99.90
16827;DHT22;8530;49.540;8.576;2023-10-19T08:13:18;17.00;99.90
16827;DHT22;8530;49.540;8.576;2023-10-19T08:15:44;17.20;99.90
16827;DHT22;8530;49.540;8.576;2023-10-19T08:18:11;17.50;99.90
16827;DHT22;8530;49.540;8.576;2023-10-19T08:20:40;18.30;99.90
16827;DHT22;8530;49.540;8.576;2023-10-19T08:23:07;19.40;99.90
16827;DHT22;8530;49.540;8.576;2023-10-19T08:25:34;20.00;99.90
16827;DHT22;8530;49.540;8.576;2023-10-19T08:28:03;20.50;99.90
16827;DHT22;8530;49.540;8.576;2023-10-19T08:30:30;20.90;99.90
16827;DHT22;8530;49.540;8.576;2023-10-19T08:32:59;21.10;99.90
16827;DHT22;8530;49.540;8.576;2023-10-19T08:35:27;21.20;99.60
16827;DHT22;8530;49.540;8.576;2023-10-19T08:37:55;21.40;99.30
16827;DHT22;8530;49.540;8.576;2023-10-19T08:40:24;21.50;98.50
16827;DHT22;8530;49.540;8.576;2023-10-19T08:42:53;21.90;98.40
16827;DHT22;8530;49.540;8.576;2023-10-19T08:45:22;22.30;97.90
16827;DHT22;8530;49.540;8.576;2023-10-19T08:47:53;22.40;96.60
16827;DHT22;8530;49.540;8.576;2023-10-19T08:50:22;22.40;95.70
16827;DHT22;8530;49.540;8.576;2023-10-19T08:52:50;22.20;95.10
16827;DHT22;8530;49.540;8.576;2023-10-19T08:55:19;22.10;94.40
16827;DHT22;8530;49.540;8.576;2023-10-19T08:57:46;21.80;93.80
16827;DHT22;8530;49.540;8.576;2023-10-19T09:00:15;21.60;93.50
16827;DHT22;8530;49.540;8.576;2023-10-19T09:02:45;21.40;93.10
16827;DHT22;8530;49.540;8.576;2023-10-19T09:05:13;21.20;93.30
16827;DHT22;8530;49.540;8.576;2023-10-19T09:07:46;21.00;92.90
16827;DHT22;8530;49.540;8.576;2023-10-19T09:10:20;20.90;92.90
16827;DHT22;8530;49.540;8.576;2023-10-19T09:12:59;20.90;92.80
16827;DHT22;8530;49.540;8.576;2023-10-19T09:15:27;20.90;92.60
16827;DHT22;8530;49.540;8.576;2023-10-19T09:17:55;20.80;92.40
16827;DHT22;8530;49.540;8.576;2023-10-19T09:20:22;20.70;92.20
16827;DHT22;8530;49.540;8.576;2023-10-19T09:22:53;20.60;92.20
16827;DHT22;8530;49.540;8.576;2023-10-19T09:25:20;20.60;92.20
16827;DHT22;8530;49.540;8.576;2023-10-19T09:27:48;20.60;92.10
16827;DHT22;8530;49.540;8.576;2023-10-19T09:30:15;20.60;92.00
16827;DHT22;8530;49.540;8.576;2023-10-19T09:32:46;20.60;92.10
16827;DHT22;8530;49.540;8.576;2023-10-19T09:35:16;20.70;91.80
16827;DHT22;8530;49.540;8.576;2023-10-19T09:37:45;20.70;91.60
16827;DHT22;8530;49.540;8.576;2023-10-19T09:40:13;20.70;91.50
16827;DHT22;8530;49.540;8.576;2023-10-19T09:42:43;20.80;91.40
16827;DHT22;8530;49.540;8.576;2023-10-19T09:45:18;20.80;91.30
16827;DHT22;8530;49.540;8.576;2023-10-19T09:47:49;20.80;91.10
16827;DHT22;8530;49.540;8.576;2023-10-19T09:50:18;20.80;91.00
16827;DHT22;8530;49.540;8.576;2023-10-19T09:52:45;20.90;90.80
16827;DHT22;8530;49.540;8.576;2023-10-19T09:55:22;21.00;90.70
16827;DHT22;8530;49.540;8.576;2023-10-19T09:57:55;21.00;90.50
16827;DHT22;8530;49.540;8.576;2023-10-19T10:00:22;21.00;90.20
16827;DHT22;8530;49.540;8.576;2023-10-19T10:02:50;21.10;90.10
16827;DHT22;8530;49.540;8.576;2023-10-19T10:05:47;21.10;89.90
16827;DHT22;8530;49.540;8.576;2023-10-19T10:08:32;21.10;89.40
16827;DHT22;8530;49.540;8.576;2023-10-19T10:11:14;21.00;89.10
16827;DHT22;8530;49.540;8.576;2023-10-19T10:13:42;21.00;88.90
16827;DHT22;8530;49.540;8.576;2023-10-19T10:16:13;21.00;88.90
16827;DHT22;8530;49.540;8.576;2023-10-19T10:18:41;21.00;88.70
16827;DHT22;8530;49.540;8.576;2023-10-19T10:21:13;20.90;88.60
16827;DHT22;8530;49.540;8.576;2023-10-19T10:23:41;21.00;88.40
16827;DHT22;8530;49.540;8.576;2023-10-19T10:26:10;20.90;88.30
16827;DHT22;8530;49.540;8.576;2023-10-19T10:28:38;20.90;88.50
16827;DHT22;8530;49.540;8.576;2023-10-19T10:31:18;21.00;88.80
16827;DHT22;8530;49.540;8.576;2023-10-19T10:33:48;21.10;88.70
16827;DHT22;8530;49.540;8.576;2023-10-19T10:36:17;21.30;88.70
16827;DHT22;8530;49.540;8.576;2023-10-19T10:38:44;21.40;88.30
16827;DHT22;8530;49.540;8.576;2023-10-19T10:41:11;21.50;88.00
16827;DHT22;8530;49.540;8.576;2023-10-19T10:43:49;21.60;87.70
16827;DHT22;8530;49.540;8.576;2023-10-19T10:46:15;21.70;87.20
16827;DHT22;8530;49.540;8.576;2023-10-19T10:48:43;21.70;86.80
16827;DHT22;8530;49.540;8.576;2023-10-19T10:51:17;21.70;86.50
16827;DHT22;8530;49.540;8.576;2023-10-19T10:53:46;21.80;86.20
16827;DHT22;8530;49.540;8.576;2023-10-19T10:56:12;21.90;86.00
16827;DHT22;8530;49.540;8.576;2023-10-19T10:58:39;22.00;85.60
16827;DHT22;8530;49.540;8.576;2023-10-19T11:01:06;22.00;85.00
16827;DHT22;8530;49.540;8.576;2023-10-19T11:03:33;21.90;84.40
16827;DHT22;8530;49.540;8.576;2023-10-19T11:06:04;21.90;84.10
16827;DHT22;8530;49.540;8.576;2023-10-19T11:08:35;21.80;83.80
16827;DHT22;8530;49.540;8.576;2023-10-19T11:11:03;21.70;83.40
16827;DHT22;8530;49.540;8.576;2023-10-19T11:13:31;21.60;83.20
16827;DHT22;8530;49.540;8.576;2023-10-19T11:16:02;21.50;83.70
16827;DHT22;8530;49.540;8.576;2023-10-19T11:18:30;21.50;83.10
16827;DHT22;8530;49.540;8.576;2023-10-19T11:20:58;21.40;82.90
16827;DHT22;8530;49.540;8.576;2023-10-19T11:23:42;21.30;82.70
16827;DHT22;8530;49.540;8.576;2023-10-19T11:26:09;21.20;82.70
16827;DHT22;8530;49.540;8.576;2023-10-19T11:28:37;21.20;82.80
16827;DHT22;8530;49.540;8.576;2023-10-19T11:31:16;21.10;82.70
16827;DHT22;8530;49.540;8.576;2023-10-19T11:33:44;21.00;83.20
16827;DHT22;8530;49.540;8.576;2023-10-19T11:36:11;21.00;82.60
16827;DHT22;8530;49.540;8.576;2023-10-19T11:38:44;20.90;82.50
16827;DHT22;8530;49.540;8.576;2023-10-19T11:41:11;20.90;83.10
16827;DHT22;8530;49.540;8.576;2023-10-19T11:43:39;20.80;82.40
16827;DHT22;8530;49.540;8.576;2023-10-19T11:46:06;20.80;82.40
16827;DHT22;8530;49.540;8.576;2023-10-19T11:48:33;20.70;82.20
16827;DHT22;8530;49.540;8.576;2023-10-19T11:51:01;20.50;82.10
16827;DHT22;8530;49.540;8.576;2023-10-19T11:53:31;20.40;82.10
16827;DHT22;8530;49.540;8.576;2023-10-19T11:56:02;20.30;82.20
16827;DHT22;8530;49.540;8.576;2023-10-19T11:58:30;20.20;82.30
16827;DHT22;8530;49.540;8.576;2023-10-19T12:00:58;20.10;82.30
16827;DHT22;8530;49.540;8.576;2023-10-19T12:03:25;20.10;82.60
16827;DHT22;8530;49.540;8.576;2023-10-19T12:05:52;20.00;82.70
16827;DHT22;8530;49.540;8.576;2023-10-19T12:08:20;20.00;82.90
16827;DHT22;8530;49.540;8.576;2023-10-19T12:10:47;20.00;83.20
16827;DHT22;8530;49.540;8.576;2023-10-19T12:13:15;19.90;83.30
16827;DHT22;8530;49.540;8.576;2023-10-19T12:15:42;19.90;83.70
16827;DHT22;8530;49.540;8.576;2023-10-19T12:18:17;19.80;83.80
16827;DHT22;8530;49.540;8.576;2023-10-19T12:20:44;19.80;84.10
16827;DHT22;8530;49.540;8.576;2023-10-19T12:23:11;19.80;84.40
16827;DHT22;8530;49.540;8.576;2023-10-19T12:25:38;19.80;84.70
16827;DHT22;8530;49.540;8.576;2023-10-19T12:28:05;19.80;85.00
16827;DHT22;8530;49.540;8.576;2023-10-19T12:30:34;19.80;85.20
16827;DHT22;8530;49.540;8.576;2023-10-19T12:33:02;19.80;85.40
16827;DHT22;8530;49.540;8.576;2023-10-19T12:35:33;19.80;85.60
16827;DHT22;8530;49.540;8.576;2023-10-19T12:38:10;19.80;85.80
16827;DHT22;8530;49.540;8.576;2023-10-19T12:40:42;19.80;86.00
16827;DHT22;8530;49.540;8.576;2023-10-19T12:43:10;19.80;86.30
16827;DHT22;8530;49.540;8.576;2023-10-19T12:45:39;19.80;86.60
16827;DHT22;8530;49.540;8.576;2023-10-19T12:48:07;19.80;86.90
16827;DHT22;8530;49.540;8.576;2023-10-19T12:50:37;19.80;87.00
16827;DHT22;8530;49.540;8.576;2023-10-19T12:53:04;19.90;87.30
16827;DHT22;8530;49.540;8.576;2023-10-19T12:55:31;19.90;87.60
16827;DHT22;8530;49.540;8.576;2023-10-19T12:57:58;19.80;87.70
16827;DHT22;8530;49.540;8.576;2023-10-19T13:00:32;19.70;87.80
16827;DHT22;8530;49.540;8.576;2023-10-19T13:03:07;19.70;88.10
16827;DHT22;8530;49.540;8.576;2023-10-19T13:05:35;19.70;88.50
16827;DHT22;8530;49.540;8.576;2023-10-19T13:08:03;19.60;88.70
16827;DHT22;8530;49.540;8.576;2023-10-19T13:10:32;19.70;89.10
16827;DHT22;8530;49.540;8.576;2023-10-19T13:13:02;19.70;89.40
16827;DHT22;8530;49.540;8.576;2023-10-19T13:15:30;19.70;90.10
16827;DHT22;8530;49.540;8.576;2023-10-19T13:17:57;19.70;90.00
16827;DHT22;8530;49.540;8.576;2023-10-19T13:20:27;19.70;90.00
16827;DHT22;8530;49.540;8.576;2023-10-19T13:22:59;19.70;90.20
16827;DHT22;8530;49.540;8.576;2023-10-19T13:25:28;19.60;90.30
16827;DHT22;8530;49.540;8.576;2023-10-19T13:28:07;19.60;90.50
16827;DHT22;8530;49.540;8.576;2023-10-19T13:30:38;19.60;90.60
16827;DHT22;8530;49.540;8.576;2023-10-19T13:33:06;19.60;90.80
16827;DHT22;8530;49.540;8.576;2023-10-19T13:35:36;19.60;90.90
16827;DHT22;8530;49.540;8.576;2023-10-19T13:38:04;19.60;91.00
16827;DHT22;8530;49.540;8.576;2023-10-19T13:40:31;19.60;91.30
16827;DHT22;8530;49.540;8.576;2023-10-19T13:42:57;19.60;91.20
16827;DHT22;8530;49.540;8.576;2023-10-19T13:45:24;19.60;91.30
16827;DHT22;8530;49.540;8.576;2023-10-19T13:47:51;19.60;91.40
16827;DHT22;8530;49.540;8.576;2023-10-19T13:50:21;19.50;91.50
16827;DHT22;8530;49.540;8.576;2023-10-19T13:52:50;19.50;91.60
16827;DHT22;8530;49.540;8.576;2023-10-19T13:55:17;19.40;91.70
16827;DHT22;8530;49.540;8.576;2023-10-19T13:57:46;19.40;91.80
16827;DHT22;8530;49.540;8.576;2023-10-19T14:00:14;19.40;92.00
16827;DHT22;8530;49.540;8.576;2023-10-19T14:02:45;19.20;92.00
16827;DHT22;8530;49.540;8.576;2023-10-19T14:05:12;19.20;92.10
16827;DHT22;8530;49.540;8.576;2023-10-19T14:07:39;19.10;92.30
16827;DHT22;8530;49.540;8.576;2023-10-19T14:10:09;19.10;92.50
16827;DHT22;8530;49.540;8.576;2023-10-19T14:12:38;19.00;92.70
16827;DHT22;8530;49.540;8.576;2023-10-19T14:15:09;19.00;92.90
16827;DHT22;8530;49.540;8.576;2023-10-19T14:17:37;18.90;93.00
16827;DHT22;8530;49.540;8.576;2023-10-19T14:20:05;18.90;93.20
16827;DHT22;8530;49.540;8.576;2023-10-19T14:22:32;18.80;93.40
16827;DHT22;8530;49.540;8.576;2023-10-19T14:25:01;18.80;93.60
16827;DHT22;8530;49.540;8.576;2023-10-19T14:27:29;18.80;93.70
16827;DHT22;8530;49.540;8.576;2023-10-19T14:29:56;18.80;93.90
16827;DHT22;8530;49.540;8.576;2023-10-19T14:32:23;18.80;94.00
16827;DHT22;8530;49.540;8.576;2023-10-19T14:34:50;18.70;94.20
16827;DHT22;8530;49.540;8.576;2023-10-19T14:37:16;18.70;94.40
16827;DHT22;8530;49.540;8.576;2023-10-19T14:39:44;18.60;94.60
16827;DHT22;8530;49.540;8.576;2023-10-19T14:42:10;18.60;94.80
16827;DHT22;8530;49.540;8.576;2023-10-19T14:44:39;18.50;94.90
16827;DHT22;8530;49.540;8.576;2023-10-19T14:47:06;18.50;95.00
16827;DHT22;8530;49.540;8.576;2023-10-19T14:49:33;18.40;95.10
16827;DHT22;8530;49.540;8.576;2023-10-19T14:52:00;18.30;95.30
16827;DHT22;8530;49.540;8.576;2023-10-19T14:54:26;18.20;95.50
16827;DHT22;8530;49.540;8.576;2023-10-19T14:56:54;18.10;95.60
16827;DHT22;8530;49.540;8.576;2023-10-19T14:59:22;18.10;95.80
16827;DHT22;8530;49.540;8.576;2023-10-19T15:01:51;18.10;96.00
16827;DHT22;8530;49.540;8.576;2023-10-19T15:04:18;18.10;96.20
16827;DHT22;8530;49.540;8.576;2023-10-19T15:06:45;18.00;96.70
16827;DHT22;8530;49.540;8.576;2023-10-19T15:09:12;17.90;96.60
16827;DHT22;8530;49.540;8.576;2023-10-19T15:11:45;17.90;96.80
16827;DHT22;8530;49.540;8.576;2023-10-19T15:14:12;17.90;97.00
16827;DHT22;8530;49.540;8.576;2023-10-19T15:16:41;18.00;97.30
16827;DHT22;8530;49.540;8.576;2023-10-19T15:19:10;18.10;97.50
16827;DHT22;8530;49.540;8.576;2023-10-19T15:21:40;18.30;97.70
16827;DHT22;8530;49.540;8.576;2023-10-19T15:24:08;18.50;97.70
16827;DHT22;8530;49.540;8.576;2023-10-19T15:26:37;18.60;97.80
16827;DHT22;8530;49.540;8.576;2023-10-19T15:29:04;18.80;97.80
16827;DHT22;8530;49.540;8.576;2023-10-19T15:31:31;18.90;97.80
16827;DHT22;8530;49.540;8.576;2023-10-19T15:33:58;19.00;97.80
16827;DHT22;8530;49.540;8.576;2023-10-19T15:36:26;19.10;97.70
16827;DHT22;8530;49.540;8.576;2023-10-19T15:38:54;19.10;97.60
16827;DHT22;8530;49.540;8.576;2023-10-19T15:41:20;19.00;97.50
16827;DHT22;8530;49.540;8.576;2023-10-19T15:43:47;18.90;97.50
16827;DHT22;8530;49.540;8.576;2023-10-19T15:46:14;18.70;97.50
16827;DHT22;8530;49.540;8.576;2023-10-19T15:48:42;18.50;97.50
16827;DHT22;8530;49.540;8.576;2023-10-19T15:51:13;18.40;97.70
16827;DHT22;8530;49.540;8.576;2023-10-19T15:53:41;18.20;98.10
16827;DHT22;8530;49.540;8.576;2023-10-19T15:56:08;18.10;97.90